Time;durP1;ratioP1;P1;durP2;ratioP2;P2;SDS_P1;SDS_P2;PMS_P1;PMS_P2;Temp;Humidity;BMP_temperature;BMP_pressure;BME280_temperature;BME280_humidity;BME280_pressure;Samples;Min_cycle;Max_cycle;Signal;HPM_P1;HPM_P2
2024/01/17 00:00:28;;;;;;;31.38;11.52;;;;;;;;;;5011452;28;20026;-54
2024/01/17 00:02:54;;;;;;;32.03;11.80;;;;;;;;;;5015707;28;20028;-56
2024/01/17 00:05:20;;;;;;;24.67;11.77;;;;;;;;;;5010718;28;20030;-57
2024/01/17 00:07:46;;;;;;;26.83;11.98;;;;;;;;;;5024764;28;20080;-54
2024/01/17 00:10:12;;;;;;;23.52;10.73;;;;;;;;;;5013414;28;20041;-57
2024/01/17 00:12:38;;;;;;;32.08;11.38;;;;;;;;;;5015582;28;20021;-52
2024/01/17 00:15:04;;;;;;;24.70;10.70;;;;;;;;;;5011661;28;20404;-55
2024/01/17 00:17:30;;;;;;;25.67;10.80;;;;;;;;;;5017883;28;20049;-54
2024/01/17 00:19:56;;;;;;;32.60;11.27;;;;;;;;;;5013057;28;20400;-56
2024/01/17 00:22:22;;;;;;;27.63;11.98;;;;;;;;;;5014739;28;20535;-56
2024/01/17 00:24:49;;;;;;;23.42;12.35;;;;;;;;;;5012646;28;20026;-53
2024/01/17 00:27:16;;;;;;;26.13;12.48;;;;;;;;;;5015627;28;20034;-55
2024/01/17 00:29:42;;;;;;;28.08;12.02;;;;;;;;;;5018596;28;20034;-57
2024/01/17 00:32:08;;;;;;;28.88;12.13;;;;;;;;;;5012757;28;20033;-55
2024/01/17 00:34:34;;;;;;;27.17;11.80;;;;;;;;;;5010893;28;20053;-57
2024/01/17 00:37:00;;;;;;;27.65;12.68;;;;;;;;;;5015993;28;20418;-55
2024/01/17 00:39:26;;;;;;;35.65;13.68;;;;;;;;;;5018914;28;20035;-54
2024/01/17 00:41:52;;;;;;;30.45;11.68;;;;;;;;;;5015629;28;20061;-53
2024/01/17 00:44:21;;;;;;;23.98;10.45;;;;;;;;;;5011337;28;20030;-56
2024/01/17 00:46:47;;;;;;;26.63;12.73;;;;;;;;;;5009858;28;20112;-54
2024/01/17 00:49:13;;;;;;;24.88;11.77;;;;;;;;;;5017366;28;20030;-54
2024/01/17 00:51:39;;;;;;;35.53;11.85;;;;;;;;;;5014715;28;20034;-56
2024/01/17 00:54:06;;;;;;;25.08;11.73;;;;;;;;;;5014657;28;20518;-57
2024/01/17 00:56:34;;;;;;;21.00;10.85;;;;;;;;;;5014592;28;20061;-55
2024/01/17 00:59:00;;;;;;;22.95;9.32;;;;;;;;;;5012785;28;20026;-56
2024/01/17 01:01:26;;;;;;;26.55;11.13;;;;;;;;;;5013882;28;20101;-56
2024/01/17 01:03:52;;;;;;;27.45;11.48;;;;;;;;;;5012700;28;20111;-56
2024/01/17 01:06:18;;;;;;;25.65;10.60;;;;;;;;;;5011928;28;20025;-54
2024/01/17 01:08:44;;;;;;;27.42;11.98;;;;;;;;;;5017306;28;20404;-55
2024/01/17 01:11:10;;;;;;;34.00;12.77;;;;;;;;;;5012663;28;20034;-55
2024/01/17 01:13:36;;;;;;;26.20;10.70;;;;;;;;;;5014595;28;20034;-55
2024/01/17 01:16:03;;;;;;;27.17;11.23;;;;;;;;;;5017147;28;20022;-55
2024/01/17 01:18:29;;;;;;;23.98;11.27;;;;;;;;;;5012492;28;20492;-56
2024/01/17 01:20:55;;;;;;;27.90;11.68;;;;;;;;;;5013855;28;20033;-54
2024/01/17 01:23:24;;;;;;;22.83;11.05;;;;;;;;;;5018822;28;20049;-53
2024/01/17 01:25:50;;;;;;;26.83;10.45;;;;;;;;;;5011961;28;20022;-53
2024/01/17 01:28:16;;;;;;;33.78;12.27;;;;;;;;;;5015918;28;20037;-55
2024/01/17 01:30:42;;;;;;;27.40;11.13;;;;;;;;;;5012185;28;20034;-53
2024/01/17 01:33:08;;;;;;;25.95;11.00;;;;;;;;;;5017681;28;20044;-53
2024/01/17 01:35:34;;;;;;;27.27;11.82;;;;;;;;;;5011980;28;20030;-57
2024/01/17 01:38:00;;;;;;;30.42;10.75;;;;;;;;;;5009737;28;20022;-55
2024/01/17 01:40:26;;;;;;;24.98;10.65;;;;;;;;;;5011185;28;20515;-56
2024/01/17 01:42:53;;;;;;;25.05;10.73;;;;;;;;;;5018954;28;20021;-56
2024/01/17 01:45:19;;;;;;;31.77;11.50;;;;;;;;;;5011110;28;20057;-55
2024/01/17 01:47:45;;;;;;;25.08;11.05;;;;;;;;;;5011858;28;20028;-54
2024/01/17 01:50:11;;;;;;;27.98;10.90;;;;;;;;;;5015228;28;20399;-53
2024/01/17 01:52:38;;;;;;;33.35;12.05;;;;;;;;;;5012035;28;20025;-53
2024/01/17 01:55:05;;;;;;;22.95;10.43;;;;;;;;;;5009988;28;20109;-53
2024/01/17 01:57:31;;;;;;;28.33;11.55;;;;;;;;;;5012333;28;20405;-55
2024/01/17 01:59:57;;;;;;;30.73;11.13;;;;;;;;;;5013279;28;20100;-55
2024/01/17 02:02:24;;;;;;;27.95;12.02;;;;;;;;;;5012244;28;20480;-56
2024/01/17 02:04:52;;;;;;;32.00;11.27;;;;;;;;;;5013916;28;20448;-54
2024/01/17 02:07:18;;;;;;;27.88;11.57;;;;;;;;;;5014402;28;20034;-56
2024/01/17 02:09:44;;;;;;;25.95;12.55;;;;;;;;;;5016650;28;20033;-55
2024/01/17 02:12:11;;;;;;;31.77;11.70;;;;;;;;;;5011585;28;20496;-54
2024/01/17 02:14:39;;;;;;;25.90;11.35;;;;;;;;;;5018148;28;20472;-53
2024/01/17 02:17:05;;;;;;;23.55;11.32;;;;;;;;;;5009953;28;20025;-53
2024/01/17 02:19:31;;;;;;;23.58;11.13;;;;;;;;;;5016064;28;20452;-57
2024/01/17 02:21:57;;;;;;;26.63;10.95;;;;;;;;;;5013871;28;20025;-57
2024/01/17 02:24:23;;;;;;;25.65;11.15;;;;;;;;;;5015123;28;20075;-54
2024/01/17 02:26:50;;;;;;;29.98;12.38;;;;;;;;;;5010996;28;20030;-54
2024/01/17 02:29:15;;;;;;;24.17;11.20;;;;;;;;;;5019737;28;20033;-56
2024/01/17 02:31:43;;;;;;;28.60;12.13;;;;;;;;;;5012232;28;20087;-55
2024/01/17 02:34:09;;;;;;;33.80;11.85;;;;;;;;;;5014706;28;20436;-52
2024/01/17 02:36:35;;;;;;;29.77;11.68;;;;;;;;;;5011800;28;20054;-56
2024/01/17 02:39:01;;;;;;;29.38;11.90;;;;;;;;;;5019088;28;20464;-54
2024/01/17 02:41:27;;;;;;;27.95;12.13;;;;;;;;;;5012448;28;20022;-54
2024/01/17 02:43:53;;;;;;;26.60;11.55;;;;;;;;;;5013421;28;20036;-55
2024/01/17 02:46:20;;;;;;;32.45;11.48;;;;;;;;;;5013200;28;20109;-54
2024/01/17 02:48:46;;;;;;;24.70;11.77;;;;;;;;;;5015861;28;20399;-57
2024/01/17 02:51:11;;;;;;;30.73;12.20;;;;;;;;;;5016870;28;20045;-57
2024/01/17 02:53:37;;;;;;;29.73;11.70;;;;;;;;;;5016518;28;20022;-53
2024/01/17 02:56:03;;;;;;;30.23;11.40;;;;;;;;;;5011243;28;20432;-55
2024/01/17 02:58:29;;;;;;;31.05;11.45;;;;;;;;;;5015842;28;20034;-57
2024/01/17 03:00:55;;;;;;;28.48;12.32;;;;;;;;;;5011918;28;20097;-56
2024/01/17 03:03:21;;;;;;;22.48;12.13;;;;;;;;;;5015656;28;20453;-54
2024/01/17 03:05:47;;;;;;;29.33;11.73;;;;;;;;;;5015727;28;20053;-54
2024/01/17 03:08:13;;;;;;;27.67;12.23;;;;;;;;;;5015429;28;20479;-55
2024/01/17 03:10:39;;;;;;;29.67;11.20;;;;;;;;;;5018247;28;20332;-54
2024/01/17 03:13:05;;;;;;;31.02;11.23;;;;;;;;;;5013903;28;20488;-54
2024/01/17 03:15:31;;;;;;;33.47;12.35;;;;;;;;;;5020073;28;20484;-55
2024/01/17 03:17:57;;;;;;;24.40;11.77;;;;;;;;;;5018472;28;20033;-58
2024/01/17 03:20:23;;;;;;;28.02;12.18;;;;;;;;;;5018932;28;20041;-54
2024/01/17 03:22:51;;;;;;;29.20;11.98;;;;;;;;;;5016745;28;20484;-54
2024/01/17 03:25:17;;;;;;;35.63;13.07;;;;;;;;;;5012158;28;20018;-56
2024/01/17 03:27:43;;;;;;;27.92;14.13;;;;;;;;;;5020713;28;20034;-56
2024/01/17 03:30:10;;;;;;;24.60;11.57;;;;;;;;;;5024100;28;20399;-54
2024/01/17 03:32:35;;;;;;;26.05;11.63;;;;;;;;;;5016765;28;20044;-55
2024/01/17 03:35:02;;;;;;;35.25;11.60;;;;;;;;;;5014926;28;20045;-54
2024/01/17 03:37:28;;;;;;;33.13;12.60;;;;;;;;;;5018283;28;20022;-56
2024/01/17 03:39:53;;;;;;;31.48;12.32;;;;;;;;;;5019965;28;20118;-55
2024/01/17 03:42:19;;;;;;;27.98;11.75;;;;;;;;;;5013819;28;20112;-55
2024/01/17 03:44:46;;;;;;;27.13;11.43;;;;;;;;;;5018460;28;20033;-55
2024/01/17 03:47:12;;;;;;;30.25;11.95;;;;;;;;;;5016269;28;20065;-55
2024/01/17 03:49:38;;;;;;;31.52;11.85;;;;;;;;;;5023173;28;20033;-57
2024/01/17 03:52:06;;;;;;;28.48;12.27;;;;;;;;;;5019256;28;20038;-55
2024/01/17 03:54:32;;;;;;;35.05;11.80;;;;;;;;;;5018659;28;20515;-58
2024/01/17 03:56:58;;;;;;;30.92;12.02;;;;;;;;;;5017567;28;20038;-54
2024/01/17 03:59:23;;;;;;;27.23;10.85;;;;;;;;;;5021049;28;20491;-56
2024/01/17 04:01:49;;;;;;;29.02;12.48;;;;;;;;;;5017642;28;20025;-57
2024/01/17 04:04:15;;;;;;;25.70;11.30;;;;;;;;;;5018339;28;20417;-56
2024/01/17 04:06:41;;;;;;;29.40;11.70;;;;;;;;;;5016576;28;20022;-53
2024/01/17 04:09:08;;;;;;;30.75;11.93;;;;;;;;;;5013652;28;20029;-55
2024/01/17 04:11:34;;;;;;;32.85;13.05;;;;;;;;;;5014288;28;20022;-56
2024/01/17 04:14:00;;;;;;;28.90;11.40;;;;;;;;;;5015754;28;20083;-55
2024/01/17 04:16:25;;;;;;;30.67;11.95;;;;;;;;;;5016363;28;20026;-51
2024/01/17 04:18:51;;;;;;;24.70;12.07;;;;;;;;;;5031709;28;20029;-54
2024/01/17 04:21:21;;;;;;;27.15;13.45;;;;;;;;;;5019087;28;20045;-54
2024/01/17 04:23:50;;;;;;;28.35;12.88;;;;;;;;;;5021849;28;20064;-56
2024/01/17 04:26:21;;;;;;;29.15;12.70;;;;;;;;;;5019203;28;20034;-55
2024/01/17 04:28:47;;;;;;;29.42;12.15;;;;;;;;;;5018434;28;20017;-55
2024/01/17 04:31:21;;;;;;;29.23;12.07;;;;;;;;;;5021718;28;20049;-55
2024/01/17 04:33:47;;;;;;;26.42;11.82;;;;;;;;;;5022349;28;20026;-57
2024/01/17 04:36:16;;;;;;;30.55;13.82;;;;;;;;;;5030367;28;20132;-57
2024/01/17 04:38:42;;;;;;;26.77;11.32;;;;;;;;;;5031651;28;20373;-57
2024/01/17 04:41:08;;;;;;;23.48;11.40;;;;;;;;;;5017203;28;20068;-53
2024/01/17 04:43:34;;;;;;;27.23;12.10;;;;;;;;;;5023902;28;20049;-53
2024/01/17 04:46:01;;;;;;;26.58;12.10;;;;;;;;;;5021833;28;20029;-56
2024/01/17 04:48:26;;;;;;;32.35;13.40;;;;;;;;;;5018322;28;20569;-55
2024/01/17 04:50:58;;;;;;;28.88;12.15;;;;;;;;;;5011886;28;20041;-54
2024/01/17 04:53:24;;;;;;;29.90;11.50;;;;;;;;;;5013394;28;20061;-56
2024/01/17 04:55:50;;;;;;;30.38;12.93;;;;;;;;;;5017235;28;20026;-57
2024/01/17 04:58:17;;;;;;;33.00;12.90;;;;;;;;;;5020106;28;20068;-54
2024/01/17 05:00:46;;;;;;;31.38;12.30;;;;;;;;;;5018519;28;20028;-53
2024/01/17 05:03:12;;;;;;;33.88;13.20;;;;;;;;;;5010270;28;20041;-55
2024/01/17 05:05:38;;;;;;;40.05;14.02;;;;;;;;;;5013715;28;20026;-56
2024/01/17 05:08:04;;;;;;;38.20;13.18;;;;;;;;;;5017281;28;20029;-54
2024/01/17 05:10:30;;;;;;;32.67;12.02;;;;;;;;;;5011731;28;20038;-53
2024/01/17 05:12:56;;;;;;;28.75;13.20;;;;;;;;;;5019809;28;20096;-54
2024/01/17 05:15:22;;;;;;;34.15;12.80;;;;;;;;;;5021653;28;20022;-56
2024/01/17 05:17:48;;;;;;;32.88;11.00;;;;;;;;;;5023774;28;20049;-58
2024/01/17 05:20:16;;;;;;;30.90;12.02;;;;;;;;;;5039348;28;20026;-56
2024/01/17 05:22:42;;;;;;;33.35;12.52;;;;;;;;;;5036127;28;20025;-56
2024/01/17 05:25:11;;;;;;;28.33;12.40;;;;;;;;;;5029760;28;20047;-58
2024/01/17 05:27:37;;;;;;;29.20;12.63;;;;;;;;;;5027739;28;20054;-57
2024/01/17 05:30:04;;;;;;;29.35;11.48;;;;;;;;;;5026919;28;20038;-58
2024/01/17 05:32:29;;;;;;;26.80;11.02;;;;;;;;;;5034256;28;20029;-58
2024/01/17 05:34:55;;;;;;;33.63;13.10;;;;;;;;;;5037497;28;20022;-53
2024/01/17 05:37:23;;;;;;;28.63;12.10;;;;;;;;;;5017353;28;20030;-54
2024/01/17 05:39:49;;;;;;;26.08;10.70;;;;;;;;;;5016672;28;20485;-53
2024/01/17 05:42:15;;;;;;;29.95;12.30;;;;;;;;;;5016810;28;20030;-54
2024/01/17 05:44:41;;;;;;;28.05;12.48;;;;;;;;;;5016144;28;20025;-53
2024/01/17 05:47:07;;;;;;;27.85;11.52;;;;;;;;;;5015479;28;20030;-54
2024/01/17 05:49:33;;;;;;;27.00;12.05;;;;;;;;;;5018514;28;20018;-54
2024/01/17 05:51:59;;;;;;;25.63;11.70;;;;;;;;;;5016455;28;20029;-55
2024/01/17 05:54:25;;;;;;;24.27;11.82;;;;;;;;;;5010570;28;20034;-55
2024/01/17 05:56:51;;;;;;;31.00;11.60;;;;;;;;;;5009774;28;20037;-57
2024/01/17 05:59:17;;;;;;;26.33;11.10;;;;;;;;;;5013022;28;20108;-55
2024/01/17 06:01:43;;;;;;;32.92;12.65;;;;;;;;;;5010901;28;20101;-53
2024/01/17 06:04:09;;;;;;;30.67;10.75;;;;;;;;;;5012879;28;20034;-54
2024/01/17 06:06:35;;;;;;;33.83;12.18;;;;;;;;;;5009009;28;20029;-54
2024/01/17 06:09:01;;;;;;;30.38;11.82;;;;;;;;;;5019565;28;20033;-54
2024/01/17 06:11:27;;;;;;;33.67;11.48;;;;;;;;;;5010257;28;20101;-54
2024/01/17 06:13:54;;;;;;;25.05;11.68;;;;;;;;;;5018820;28;20400;-54
2024/01/17 06:16:20;;;;;;;31.23;13.98;;;;;;;;;;5010357;28;20080;-54
2024/01/17 06:18:45;;;;;;;26.00;11.38;;;;;;;;;;5014245;28;20049;-54
2024/01/17 06:21:11;;;;;;;33.08;12.02;;;;;;;;;;5008103;28;20034;-56
2024/01/17 06:23:38;;;;;;;24.85;10.65;;;;;;;;;;5005850;28;20042;-55
2024/01/17 06:26:04;;;;;;;28.33;12.27;;;;;;;;;;5012786;28;20053;-55
2024/01/17 06:28:33;;;;;;;29.88;12.25;;;;;;;;;;5016953;28;20133;-55
2024/01/17 06:30:59;;;;;;;36.22;14.10;;;;;;;;;;5004162;28;20028;-57
2024/01/17 06:33:25;;;;;;;27.63;11.38;;;;;;;;;;5005375;28;20080;-54
2024/01/17 06:35:51;;;;;;;32.88;12.07;;;;;;;;;;5008016;28;20058;-56
2024/01/17 06:38:17;;;;;;;30.58;11.70;;;;;;;;;;5006269;28;20054;-53
2024/01/17 06:40:43;;;;;;;30.80;12.20;;;;;;;;;;5015928;28;20029;-53
2024/01/17 06:43:09;;;;;;;27.98;9.65;;;;;;;;;;5014076;28;20113;-54
2024/01/17 06:45:35;;;;;;;27.48;10.98;;;;;;;;;;5016193;28;20338;-54
2024/01/17 06:48:03;;;;;;;22.00;9.73;;;;;;;;;;5017675;28;20823;-57
2024/01/17 06:50:29;;;;;;;19.77;9.60;;;;;;;;;;5012344;28;20033;-53
2024/01/17 06:52:55;;;;;;;28.90;13.70;;;;;;;;;;5014264;28;20021;-55
2024/01/17 06:55:21;;;;;;;33.40;14.07;;;;;;;;;;5017321;28;20091;-52
2024/01/17 06:57:47;;;;;;;32.15;12.50;;;;;;;;;;5015328;28;20029;-55
2024/01/17 07:00:13;;;;;;;32.38;10.77;;;;;;;;;;5023007;28;20425;-55
2024/01/17 07:02:39;;;;;;;24.20;11.32;;;;;;;;;;5019349;28;20025;-55
2024/01/17 07:05:06;;;;;;;24.23;10.45;;;;;;;;;;5021453;28;20033;-53
2024/01/17 07:07:32;;;;;;;22.00;10.43;;;;;;;;;;5009924;28;20129;-57
2024/01/17 07:09:58;;;;;;;22.23;9.25;;;;;;;;;;5016172;28;20030;-54
2024/01/17 07:12:24;;;;;;;26.75;10.27;;;;;;;;;;5010601;28;20027;-55
2024/01/17 07:14:54;;;;;;;28.88;10.15;;;;;;;;;;5016862;28;20041;-54
2024/01/17 07:17:20;;;;;;;26.90;11.15;;;;;;;;;;5011415;28;20026;-57
2024/01/17 07:19:46;;;;;;;26.73;10.32;;;;;;;;;;5014129;28;20029;-55
2024/01/17 07:22:13;;;;;;;27.10;10.55;;;;;;;;;;5015068;28;20026;-57
2024/01/17 07:24:39;;;;;;;28.25;10.57;;;;;;;;;;5018110;28;20028;-53
2024/01/17 07:27:05;;;;;;;25.17;9.93;;;;;;;;;;5021490;28;20030;-54
2024/01/17 07:29:31;;;;;;;25.42;10.48;;;;;;;;;;5020163;28;20431;-53
2024/01/17 07:31:57;;;;;;;22.63;11.02;;;;;;;;;;5016244;28;20030;-55
2024/01/17 07:34:23;;;;;;;24.23;10.05;;;;;;;;;;5019003;28;20034;-54
2024/01/17 07:36:51;;;;;;;20.50;9.30;;;;;;;;;;5014779;28;20041;-57
2024/01/17 07:39:18;;;;;;;28.77;10.98;;;;;;;;;;5010983;28;20018;-56
2024/01/17 07:41:44;;;;;;;23.48;10.07;;;;;;;;;;5021122;28;20030;-53
2024/01/17 07:44:10;;;;;;;28.42;10.77;;;;;;;;;;5020896;28;20068;-56
2024/01/17 07:46:36;;;;;;;23.73;10.32;;;;;;;;;;5014182;28;20026;-53
2024/01/17 07:49:02;;;;;;;24.55;9.57;;;;;;;;;;5020893;28;20053;-56
2024/01/17 07:51:28;;;;;;;26.70;9.27;;;;;;;;;;5018727;28;20030;-56
2024/01/17 07:53:54;;;;;;;23.77;9.13;;;;;;;;;;5018773;28;20112;-54
2024/01/17 07:56:20;;;;;;;32.15;11.60;;;;;;;;;;5014785;28;20057;-56
2024/01/17 07:58:46;;;;;;;28.42;10.35;;;;;;;;;;5019432;28;20116;-56
2024/01/17 08:01:12;;;;;;;27.60;10.27;;;;;;;;;;5017379;28;20052;-55
2024/01/17 08:03:38;;;;;;;31.45;13.35;;;;;;;;;;5018163;28;20041;-55
2024/01/17 08:06:04;;;;;;;28.65;9.32;;;;;;;;;;5016056;28;20454;-56
2024/01/17 08:08:30;;;;;;;23.27;9.65;;;;;;;;;;5015954;28;20065;-56
2024/01/17 08:10:56;;;;;;;24.73;10.23;;;;;;;;;;5016678;28;20064;-54
2024/01/17 08:13:22;;;;;;;27.92;10.60;;;;;;;;;;5020938;28;20034;-55
2024/01/17 08:15:48;;;;;;;24.88;9.57;;;;;;;;;;5019268;28;20030;-54
2024/01/17 08:18:14;;;;;;;25.75;9.90;;;;;;;;;;5018882;28;20034;-51
2024/01/17 08:20:40;;;;;;;22.67;9.75;;;;;;;;;;5021440;28;20021;-52
2024/01/17 08:23:06;;;;;;;19.67;9.00;;;;;;;;;;5016640;28;20446;-53
2024/01/17 08:25:33;;;;;;;30.55;9.75;;;;;;;;;;5021740;28;20033;-57
2024/01/17 08:27:59;;;;;;;28.15;10.95;;;;;;;;;;5013073;28;20033;-52
2024/01/17 08:30:26;;;;;;;25.42;10.27;;;;;;;;;;5012568;28;20038;-53
2024/01/17 08:32:53;;;;;;;24.17;10.48;;;;;;;;;;5019082;28;20068;-56
2024/01/17 08:35:20;;;;;;;30.77;10.80;;;;;;;;;;5012269;28;20022;-55
2024/01/17 08:37:46;;;;;;;18.15;9.05;;;;;;;;;;5013743;28;20428;-57
2024/01/17 08:40:12;;;;;;;29.65;10.10;;;;;;;;;;5018525;28;20055;-53
2024/01/17 08:42:38;;;;;;;32.90;10.32;;;;;;;;;;5016453;28;20030;-57
2024/01/17 08:45:06;;;;;;;26.88;10.85;;;;;;;;;;5011623;28;20475;-56
2024/01/17 08:47:32;;;;;;;26.20;10.13;;;;;;;;;;5018415;28;20029;-53
2024/01/17 08:50:00;;;;;;;19.70;9.43;;;;;;;;;;5021090;28;20026;-56
2024/01/17 08:52:26;;;;;;;28.52;10.07;;;;;;;;;;5009705;28;20144;-56
2024/01/17 08:54:52;;;;;;;29.75;10.63;;;;;;;;;;5023741;28;20498;-55
2024/01/17 08:57:18;;;;;;;25.48;10.85;;;;;;;;;;5014271;28;20030;-53
2024/01/17 08:59:44;;;;;;;31.40;10.18;;;;;;;;;;5017461;28;20066;-55
2024/01/17 09:02:10;;;;;;;30.13;10.70;;;;;;;;;;5018641;28;20123;-53
2024/01/17 09:04:36;;;;;;;26.55;10.57;;;;;;;;;;5022671;28;20036;-54
2024/01/17 09:07:01;;;;;;;26.83;11.32;;;;;;;;;;5011249;28;20512;-55
2024/01/17 09:09:27;;;;;;;26.00;9.82;;;;;;;;;;5016447;28;20033;-56
2024/01/17 09:11:54;;;;;;;29.15;11.27;;;;;;;;;;5014967;28;20377;-55
2024/01/17 09:14:21;;;;;;;27.38;10.63;;;;;;;;;;5012548;28;20065;-56
2024/01/17 09:16:49;;;;;;;20.83;10.38;;;;;;;;;;5013610;28;20034;-54
2024/01/17 09:19:15;;;;;;;27.38;11.13;;;;;;;;;;5010293;28;20423;-56
2024/01/17 09:21:41;;;;;;;25.38;10.57;;;;;;;;;;5012904;28;20100;-56
2024/01/17 09:24:07;;;;;;;27.08;10.18;;;;;;;;;;5014850;28;20018;-55
2024/01/17 09:26:33;;;;;;;26.25;11.32;;;;;;;;;;5010652;28;20030;-53
2024/01/17 09:28:59;;;;;;;23.85;9.98;;;;;;;;;;5015722;28;20028;-55
2024/01/17 09:31:25;;;;;;;21.88;10.30;;;;;;;;;;5008483;28;20089;-54
2024/01/17 09:33:52;;;;;;;27.42;9.75;;;;;;;;;;5010379;28;20048;-56
2024/01/17 09:36:18;;;;;;;32.60;10.80;;;;;;;;;;5010003;28;20369;-57
2024/01/17 09:38:44;;;;;;;25.88;10.30;;;;;;;;;;5014304;28;20108;-54
2024/01/17 09:41:10;;;;;;;25.13;10.98;;;;;;;;;;5015990;28;20559;-56
2024/01/17 09:43:36;;;;;;;28.75;9.52;;;;;;;;;;5015702;28;20029;-53
2024/01/17 09:46:02;;;;;;;37.67;11.18;;;;;;;;;;5009483;28;20097;-54
2024/01/17 09:48:29;;;;;;;24.17;10.23;;;;;;;;;;5003955;28;20030;-59
2024/01/17 09:50:57;;;;;;;25.08;11.00;;;;;;;;;;5012788;28;20060;-56
2024/01/17 09:53:30;;;;;;;33.40;11.57;;;;;;;;;;5014933;28;20064;-55
2024/01/17 09:56:01;;;;;;;28.38;11.80;;;;;;;;;;5013216;28;20487;-55
2024/01/17 09:58:28;;;;;;;24.58;11.00;;;;;;;;;;5013628;28;20051;-56
2024/01/17 10:00:55;;;;;;;26.70;11.57;;;;;;;;;;5019348;28;20026;-58
2024/01/17 10:03:22;;;;;;;28.27;12.25;;;;;;;;;;5013996;28;20084;-54
2024/01/17 10:05:50;;;;;;;28.65;12.02;;;;;;;;;;5015262;28;20087;-55
2024/01/17 10:08:18;;;;;;;25.48;9.77;;;;;;;;;;5012249;28;20065;-57
2024/01/17 10:10:44;;;;;;;25.08;11.25;;;;;;;;;;5015838;28;20018;-55
2024/01/17 10:13:13;;;;;;;27.90;11.25;;;;;;;;;;5012763;28;20037;-53
2024/01/17 10:15:42;;;;;;;24.85;11.57;;;;;;;;;;5012658;28;20080;-57
2024/01/17 10:18:10;;;;;;;26.00;11.13;;;;;;;;;;5009035;28;20030;-55
2024/01/17 10:20:36;;;;;;;25.10;11.05;;;;;;;;;;5014673;28;20026;-56
2024/01/17 10:23:03;;;;;;;27.83;11.35;;;;;;;;;;5005814;28;20030;-54
2024/01/17 10:25:36;;;;;;;25.98;12.50;;;;;;;;;;5016473;28;20036;-54
2024/01/17 10:28:02;;;;;;;23.70;11.43;;;;;;;;;;5012604;28;20037;-55
2024/01/17 10:30:29;;;;;;;27.85;11.95;;;;;;;;;;5013577;28;20515;-55
2024/01/17 10:32:55;;;;;;;26.55;11.40;;;;;;;;;;5010997;28;20113;-52
2024/01/17 10:35:23;;;;;;;27.40;11.68;;;;;;;;;;5009916;28;20099;-53
2024/01/17 10:37:51;;;;;;;27.98;12.93;;;;;;;;;;5003931;28;20025;-51
2024/01/17 10:40:18;;;;;;;25.40;11.55;;;;;;;;;;5009830;28;20026;-57
2024/01/17 10:42:44;;;;;;;33.42;13.32;;;;;;;;;;5006377;28;20076;-56
2024/01/17 10:45:20;;;;;;;25.15;10.98;;;;;;;;;;5007422;28;20046;-58
2024/01/17 10:47:46;;;;;;;28.00;13.07;;;;;;;;;;5016424;28;20109;-56
2024/01/17 10:50:12;;;;;;;26.02;12.65;;;;;;;;;;5009090;28;20037;-56
2024/01/17 10:52:43;;;;;;;27.20;11.95;;;;;;;;;;5017956;28;20030;-55
2024/01/17 10:55:13;;;;;;;30.75;12.75;;;;;;;;;;5009917;28;20061;-56
2024/01/17 10:57:41;;;;;;;27.73;11.52;;;;;;;;;;5000827;28;20474;-55
2024/01/17 11:00:11;;;;;;;25.17;11.13;;;;;;;;;;5016225;28;20018;-54
2024/01/17 11:02:40;;;;;;;32.70;11.68;;;;;;;;;;5010506;28;20427;-53
2024/01/17 11:05:08;;;;;;;34.33;12.93;;;;;;;;;;5006780;28;20476;-54
2024/01/17 11:07:34;;;;;;;26.42;11.07;;;;;;;;;;5015757;28;20495;-55
2024/01/17 11:10:02;;;;;;;23.65;11.35;;;;;;;;;;5013357;28;20026;-54
2024/01/17 11:12:31;;;;;;;21.83;11.57;;;;;;;;;;5015212;28;20115;-53
2024/01/17 11:14:59;;;;;;;30.98;12.38;;;;;;;;;;5012116;28;20109;-55
2024/01/17 11:17:28;;;;;;;31.15;11.80;;;;;;;;;;5006176;28;20557;-53
2024/01/17 11:19:55;;;;;;;31.00;12.90;;;;;;;;;;5005888;28;20024;-55
2024/01/17 11:22:21;;;;;;;30.38;12.52;;;;;;;;;;5011682;28;20026;-54
2024/01/17 11:24:51;;;;;;;30.65;13.05;;;;;;;;;;5005321;28;20037;-54
2024/01/17 11:27:22;;;;;;;26.13;13.25;;;;;;;;;;5011073;28;20045;-54
2024/01/17 11:30:06;;;;;;;33.00;13.40;;;;;;;;;;5011556;28;20045;-55
2024/01/17 11:32:47;;;;;;;33.78;13.32;;;;;;;;;;5012643;28;20037;-57
2024/01/17 11:35:32;;;;;;;33.20;11.60;;;;;;;;;;5007266;28;20030;-54
2024/01/17 11:37:58;;;;;;;35.83;13.73;;;;;;;;;;5019387;28;20082;-55
2024/01/17 11:40:24;;;;;;;28.52;12.35;;;;;;;;;;5017117;28;20025;-54
2024/01/17 11:42:50;;;;;;;29.58;14.63;;;;;;;;;;5009867;28;20022;-54
2024/01/17 11:45:16;;;;;;;35.13;13.60;;;;;;;;;;5012103;28;20030;-60
2024/01/17 11:47:52;;;;;;;25.90;12.98;;;;;;;;;;5008983;28;20030;-56
2024/01/17 11:50:20;;;;;;;29.17;14.10;;;;;;;;;;5019850;28;20184;-57
2024/01/17 11:52:46;;;;;;;27.55;13.00;;;;;;;;;;5010886;28;20165;-55
2024/01/17 11:55:12;;;;;;;34.53;14.30;;;;;;;;;;5017902;28;20106;-56
2024/01/17 11:57:38;;;;;;;30.65;15.48;;;;;;;;;;5014220;28;20511;-56
2024/01/17 12:00:07;;;;;;;38.63;15.90;;;;;;;;;;5022603;28;20094;-56
2024/01/17 12:02:37;;;;;;;37.70;15.82;;;;;;;;;;5011491;28;20026;-57
2024/01/17 12:05:05;;;;;;;39.40;16.48;;;;;;;;;;5019015;28;20025;-57
2024/01/17 12:07:31;;;;;;;32.95;15.45;;;;;;;;;;5012953;28;20045;-55
2024/01/17 12:09:57;;;;;;;32.72;16.20;;;;;;;;;;5012458;28;20098;-57
2024/01/17 12:12:23;;;;;;;35.83;16.40;;;;;;;;;;5014580;28;20507;-54
2024/01/17 12:14:49;;;;;;;35.45;16.65;;;;;;;;;;5021597;28;20028;-57
2024/01/17 12:17:15;;;;;;;36.78;16.02;;;;;;;;;;5013934;28;20057;-56
2024/01/17 12:19:43;;;;;;;41.33;16.10;;;;;;;;;;5017453;28;20128;-56
2024/01/17 12:22:09;;;;;;;47.97;18.05;;;;;;;;;;5011436;28;20026;-56
2024/01/17 12:24:37;;;;;;;36.95;17.40;;;;;;;;;;5013418;28;20029;-56
2024/01/17 12:27:05;;;;;;;36.97;16.50;;;;;;;;;;5012885;28;20037;-56
2024/01/17 12:29:32;;;;;;;46.28;17.65;;;;;;;;;;5009575;28;20026;-57
2024/01/17 12:31:58;;;;;;;35.65;16.67;;;;;;;;;;5007101;28;20038;-56
2024/01/17 12:34:25;;;;;;;39.05;17.52;;;;;;;;;;5016410;28;20030;-54
2024/01/17 12:36:50;;;;;;;38.40;17.55;;;;;;;;;;5005832;28;20125;-55
2024/01/17 12:39:17;;;;;;;36.58;16.20;;;;;;;;;;5014328;28;20101;-56
2024/01/17 12:41:42;;;;;;;37.95;16.50;;;;;;;;;;5005721;28;20478;-55
2024/01/17 12:44:08;;;;;;;38.72;17.30;;;;;;;;;;5010605;28;20029;-56
2024/01/17 12:46:35;;;;;;;45.40;18.70;;;;;;;;;;5002852;28;20105;-56
2024/01/17 12:49:01;;;;;;;39.58;17.65;;;;;;;;;;5010196;28;20083;-55
2024/01/17 12:51:29;;;;;;;43.55;17.52;;;;;;;;;;5009714;28;20050;-54
2024/01/17 12:53:56;;;;;;;47.17;20.48;;;;;;;;;;5009634;28;20054;-56
2024/01/17 12:56:22;;;;;;;44.35;18.38;;;;;;;;;;5008448;28;20025;-54
2024/01/17 12:58:48;;;;;;;53.15;18.73;;;;;;;;;;5004101;28;20149;-58
2024/01/17 13:01:16;;;;;;;41.58;19.95;;;;;;;;;;5007752;28;20225;-52
2024/01/17 13:03:44;;;;;;;40.03;17.67;;;;;;;;;;5010708;28;20022;-53
2024/01/17 13:06:12;;;;;;;49.20;21.13;;;;;;;;;;5005426;28;20087;-57
2024/01/17 13:08:38;;;;;;;43.20;19.65;;;;;;;;;;5010902;28;20070;-53
2024/01/17 13:11:13;;;;;;;42.15;18.27;;;;;;;;;;5012738;28;20037;-53
2024/01/17 13:13:39;;;;;;;45.67;20.13;;;;;;;;;;5011697;28;20107;-55
2024/01/17 13:16:05;;;;;;;39.97;20.10;;;;;;;;;;5010570;28;20061;-54
2024/01/17 13:18:32;;;;;;;42.13;20.00;;;;;;;;;;5009560;28;20060;-53
2024/01/17 13:21:08;;;;;;;41.55;18.58;;;;;;;;;;5008813;28;20017;-56
2024/01/17 13:23:34;;;;;;;47.20;19.30;;;;;;;;;;5011506;28;20439;-54
2024/01/17 13:26:00;;;;;;;42.85;19.85;;;;;;;;;;5010568;28;20038;-56
2024/01/17 13:28:26;;;;;;;42.03;19.95;;;;;;;;;;5011668;28;20065;-55
2024/01/17 13:30:52;;;;;;;43.67;20.60;;;;;;;;;;5009531;28;20029;-57
2024/01/17 13:33:19;;;;;;;42.22;19.40;;;;;;;;;;5012842;28;20427;-53
2024/01/17 13:35:48;;;;;;;45.67;18.17;;;;;;;;;;5009060;28;20021;-55
2024/01/17 13:38:14;;;;;;;41.47;18.40;;;;;;;;;;5008597;28;20029;-53
2024/01/17 13:40:41;;;;;;;40.85;18.48;;;;;;;;;;5011008;28;20041;-56
2024/01/17 13:43:07;;;;;;;40.50;17.90;;;;;;;;;;5012845;28;20432;-56
2024/01/17 13:45:33;;;;;;;40.63;18.15;;;;;;;;;;5011530;28;20396;-56
2024/01/17 13:47:59;;;;;;;40.97;17.67;;;;;;;;;;5008464;28;20032;-56
2024/01/17 13:50:27;;;;;;;39.22;17.58;;;;;;;;;;5012868;28;20113;-53
2024/01/17 13:52:55;;;;;;;37.70;17.98;;;;;;;;;;5010508;28;20029;-52
2024/01/17 13:55:22;;;;;;;41.20;19.10;;;;;;;;;;5012780;28;20117;-55
2024/01/17 13:57:48;;;;;;;41.42;17.85;;;;;;;;;;5007493;28;20034;-54
2024/01/17 14:00:15;;;;;;;43.13;18.15;;;;;;;;;;5010842;28;20121;-53
2024/01/17 14:02:44;;;;;;;39.38;18.52;;;;;;;;;;5008674;28;20053;-55
2024/01/17 14:05:11;;;;;;;44.28;17.58;;;;;;;;;;5011906;28;20038;-54
2024/01/17 14:07:38;;;;;;;39.70;17.85;;;;;;;;;;5006844;28;20049;-52
2024/01/17 14:10:05;;;;;;;46.70;19.63;;;;;;;;;;5004488;28;20037;-54
2024/01/17 14:12:31;;;;;;;34.97;17.10;;;;;;;;;;5003738;28;20107;-53
2024/01/17 14:14:57;;;;;;;39.05;16.48;;;;;;;;;;5007599;28;20022;-53